Time;durP1;ratioP1;P1;durP2;ratioP2;P2;SDS_P1;SDS_P2;PMS_P1;PMS_P2;Temp;Humidity;BMP_temperature;BMP_pressure;BME280_temperature;BME280_humidity;BME280_pressure;Samples;Min_cycle;Max_cycle;Signal;HPM_P1;HPM_P2
2024/03/27 00:00:19;;;;;;;1.98;0.82;;;;;;;8.93;100.00;90317.19;2090324;28;20156;-83
2024/03/27 00:01:20;;;;;;;1.67;0.70;;;;;;;8.91;100.00;90325.66;2085060;28;20029;-86
2024/03/27 00:02:23;;;;;;;2.20;1.23;;;;;;;8.93;100.00;90317.91;2090806;28;20103;-86
2024/03/27 00:03:24;;;;;;;1.60;0.95;;;;;;;8.89;100.00;90317.38;2098001;28;20116;-83
2024/03/27 00:04:25;;;;;;;2.05;1.33;;;;;;;9.02;100.00;90311.66;2082308;28;20099;-83
2024/03/27 00:05:26;;;;;;;1.50;1.10;;;;;;;9.06;100.00;90304.19;2080964;28;20425;-84
2024/03/27 00:06:27;;;;;;;4.43;1.20;;;;;;;8.97;100.00;90307.03;2080970;28;20044;-85
2024/03/27 00:07:28;;;;;;;2.40;0.90;;;;;;;8.77;100.00;90305.19;2090176;28;20071;-84
2024/03/27 00:08:29;;;;;;;3.40;1.10;;;;;;;8.66;100.00;90302.44;2083133;28;20088;-88
2024/03/27 00:09:30;;;;;;;2.58;1.10;;;;;;;8.79;100.00;90300.84;2081203;28;20445;-84
2024/03/27 00:10:32;;;;;;;1.00;0.80;;;;;;;8.88;100.00;90291.97;2089186;28;20028;-87
2024/03/27 00:11:33;;;;;;;2.15;0.90;;;;;;;8.83;100.00;90284.66;2081607;28;21002;-86
2024/03/27 00:12:34;;;;;;;2.55;1.00;;;;;;;8.83;100.00;90290.00;2085068;28;20118;-85
2024/03/27 00:13:35;;;;;;;2.95;1.20;;;;;;;8.83;100.00;90287.31;2080462;28;20052;-86
2024/03/27 00:14:36;;;;;;;1.85;1.20;;;;;;;8.71;100.00;90275.84;2080579;28;21182;-87
2024/03/27 00:15:37;;;;;;;2.72;1.10;;;;;;;8.49;100.00;90273.75;2081797;28;20037;-83
2024/03/27 00:16:38;;;;;;;2.00;1.00;;;;;;;8.19;100.00;90269.81;2063663;28;21061;-85
2024/03/27 00:17:40;;;;;;;1.38;1.05;;;;;;;8.05;100.00;90274.06;2090123;28;20096;-88
2024/03/27 00:18:41;;;;;;;1.13;0.90;;;;;;;8.36;100.00;90265.38;2094818;28;20525;-83
2024/03/27 00:19:42;;;;;;;2.03;1.25;;;;;;;8.50;100.00;90264.56;2091440;28;20090;-86
2024/03/27 00:20:43;;;;;;;4.15;1.23;;;;;;;8.48;100.00;90264.31;2090248;28;20892;-85
2024/03/27 00:21:44;;;;;;;1.88;1.10;;;;;;;8.66;100.00;90263.22;2082231;28;20021;-84
2024/03/27 00:22:45;;;;;;;1.48;0.90;;;;;;;8.55;100.00;90269.19;2086509;28;20079;-87
2024/03/27 00:23:47;;;;;;;1.88;1.13;;;;;;;8.45;100.00;90267.91;2094547;28;20031;-87
2024/03/27 00:24:48;;;;;;;2.35;1.15;;;;;;;8.47;100.00;90264.75;2086194;28;20094;-83
2024/03/27 00:25:59;;;;;;;2.28;1.27;;;;;;;8.38;100.00;90270.97;2106356;28;20107;-83
2024/03/27 00:27:00;;;;;;;1.67;1.10;;;;;;;8.29;100.00;90260.47;2081497;28;20025;-85
2024/03/27 00:28:02;;;;;;;3.10;1.20;;;;;;;8.39;100.00;90253.09;2089644;28;20148;-84
2024/03/27 00:29:03;;;;;;;1.92;1.13;;;;;;;8.35;100.00;90260.53;2083623;28;20429;-84
2024/03/27 00:30:05;;;;;;;3.88;1.10;;;;;;;8.34;100.00;90249.16;2067912;28;20026;-82
2024/03/27 00:31:06;;;;;;;2.72;1.85;;;;;;;8.27;100.00;90257.56;2082168;28;20119;-83
2024/03/27 00:32:07;;;;;;;2.58;1.20;;;;;;;8.33;100.00;90242.38;2063763;28;23287;-84
2024/03/27 00:33:14;;;;;;;2.00;1.10;;;;;;;8.28;100.00;90237.72;2082916;28;20037;-85
2024/03/27 00:34:16;;;;;;;2.28;1.10;;;;;;;8.26;100.00;90232.16;2081861;28;20024;-88
2024/03/27 00:35:17;;;;;;;1.88;1.17;;;;;;;8.04;100.00;90238.03;2080217;28;20095;-84
2024/03/27 00:36:19;;;;;;;1.85;1.00;;;;;;;8.04;100.00;90230.75;2085522;28;20087;-85
2024/03/27 00:37:20;;;;;;;2.63;1.27;;;;;;;8.09;100.00;90234.69;2080717;28;20055;-84
2024/03/27 00:38:21;;;;;;;4.07;1.40;;;;;;;7.98;100.00;90235.28;2089872;28;20029;-86
2024/03/27 00:39:22;;;;;;;1.95;1.10;;;;;;;8.23;100.00;90236.47;2081095;28;20032;-85
2024/03/27 00:40:23;;;;;;;2.42;1.30;;;;;;;8.23;100.00;90225.84;2085875;28;20111;-85
2024/03/27 00:41:24;;;;;;;3.17;1.20;;;;;;;8.25;100.00;90222.69;2096204;28;20020;-83
2024/03/27 00:42:25;;;;;;;1.92;1.30;;;;;;;8.08;100.00;90211.94;2069959;28;20036;-86
2024/03/27 00:43:26;;;;;;;2.60;1.33;;;;;;;8.00;100.00;90214.28;2096713;28;20467;-86
2024/03/27 00:44:33;;;;;;;2.80;1.25;;;;;;;8.15;100.00;90194.81;2097305;28;20464;-85
2024/03/27 00:45:34;;;;;;;2.63;1.30;;;;;;;8.12;100.00;90198.41;2063650;28;20044;-84
2024/03/27 00:46:35;;;;;;;3.05;1.52;;;;;;;8.00;100.00;90190.34;2089518;28;20104;-85
2024/03/27 00:47:37;;;;;;;1.40;1.20;;;;;;;7.91;100.00;90193.16;2088141;28;20038;-87
2024/03/27 00:48:38;;;;;;;2.15;1.33;;;;;;;7.62;100.00;90191.44;2097898;28;20071;-85
2024/03/27 00:49:39;;;;;;;2.17;1.30;;;;;;;7.84;100.00;90196.25;2076554;28;20124;-82
2024/03/27 00:50:40;;;;;;;3.15;1.50;;;;;;;7.86;100.00;90201.84;2073456;28;20024;-83
2024/03/27 00:51:40;;;;;;;3.40;1.50;;;;;;;7.74;100.00;90200.97;2076000;28;20048;-84
2024/03/27 00:52:42;;;;;;;2.28;1.60;;;;;;;7.83;100.00;90205.41;2080368;28;20071;-85
2024/03/27 00:53:43;;;;;;;2.22;1.60;;;;;;;7.75;100.00;90213.06;2093723;28;20029;-83
2024/03/27 00:54:44;;;;;;;3.20;1.50;;;;;;;7.80;100.00;90209.00;2080538;28;20031;-85
2024/03/27 00:55:59;;;;;;;1.90;1.33;;;;;;;7.82;100.00;90209.28;2102009;28;20392;-86
2024/03/27 00:57:00;;;;;;;4.07;1.48;;;;;;;7.72;100.00;90214.00;2097121;28;20523;-84
2024/03/27 00:58:01;;;;;;;2.08;1.17;;;;;;;7.79;100.00;90207.56;2085701;28;20017;-88
2024/03/27 00:59:02;;;;;;;2.08;1.40;;;;;;;7.73;100.00;90215.47;2073473;28;20029;-84
2024/03/27 01:00:03;;;;;;;2.42;1.20;;;;;;;7.72;100.00;90207.97;2078390;28;20596;-85
2024/03/27 01:01:04;;;;;;;2.47;1.27;;;;;;;7.64;100.00;90206.91;2097609;28;20024;-86
2024/03/27 01:02:05;;;;;;;2.63;1.30;;;;;;;7.56;100.00;90211.94;2097597;28;20393;-83
2024/03/27 01:03:07;;;;;;;2.75;1.25;;;;;;;7.43;100.00;90211.53;2079371;28;20025;-85
2024/03/27 01:04:08;;;;;;;1.90;1.10;;;;;;;7.40;100.00;90199.19;2092446;28;20834;-84
2024/03/27 01:05:09;;;;;;;3.45;1.23;;;;;;;7.45;100.00;90201.16;2072391;28;20028;-85
2024/03/27 01:06:10;;;;;;;3.65;1.13;;;;;;;7.11;100.00;90197.38;2080694;28;20028;-84
2024/03/27 01:07:11;;;;;;;2.40;1.20;;;;;;;7.28;100.00;90200.97;2096002;28;20032;-86
2024/03/27 01:08:12;;;;;;;1.80;1.10;;;;;;;7.26;100.00;90196.13;2072258;28;20037;-85
2024/03/27 01:09:13;;;;;;;1.63;1.10;;;;;;;7.17;100.00;90203.50;2081392;28;20061;-83
2024/03/27 01:10:14;;;;;;;3.53;1.20;;;;;;;7.03;100.00;90194.41;2089576;28;20503;-82
2024/03/27 01:11:15;;;;;;;1.80;0.85;;;;;;;6.98;100.00;90201.13;2088607;28;20496;-86
2024/03/27 01:12:16;;;;;;;1.38;1.00;;;;;;;7.09;100.00;90195.22;2089465;28;20176;-83
2024/03/27 01:13:17;;;;;;;1.48;0.88;;;;;;;7.14;100.00;90193.81;2082679;28;20087;-86
2024/03/27 01:14:18;;;;;;;1.33;0.85;;;;;;;7.23;100.00;90197.06;2089399;28;20078;-85
2024/03/27 01:15:22;;;;;;;3.03;0.88;;;;;;;6.84;100.00;90201.16;2076708;28;20021;-83
2024/03/27 01:16:25;;;;;;;2.35;1.00;;;;;;;6.76;100.00;90198.16;2080815;28;20529;-85
2024/03/27 01:17:26;;;;;;;0.98;0.80;;;;;;;6.95;100.00;90194.06;2097950;28;20436;-84
2024/03/27 01:18:27;;;;;;;1.77;0.90;;;;;;;7.09;100.00;90192.56;2095700;28;20055;-84
2024/03/27 01:19:28;;;;;;;2.63;0.95;;;;;;;6.86;100.00;90193.47;2100406;28;20540;-84
2024/03/27 01:20:30;;;;;;;1.25;0.80;;;;;;;6.94;100.00;90191.91;2066013;28;20079;-86
2024/03/27 01:21:31;;;;;;;1.77;0.90;;;;;;;7.01;100.00;90189.56;2089558;28;20079;-85
2024/03/27 01:22:32;;;;;;;2.40;1.08;;;;;;;7.04;100.00;90193.94;2089374;28;20543;-84
2024/03/27 01:23:33;;;;;;;1.13;0.90;;;;;;;6.92;100.00;90184.38;2072281;28;20029;-84
2024/03/27 01:24:34;;;;;;;2.08;0.90;;;;;;;6.93;100.00;90179.78;2087178;28;20052;-83
2024/03/27 01:25:36;;;;;;;0.63;0.63;;;;;;;6.93;100.00;90177.13;2079340;28;20029;-87
2024/03/27 01:26:37;;;;;;;1.40;0.80;;;;;;;6.98;100.00;90176.47;2089658;28;20025;-87
2024/03/27 01:27:38;;;;;;;2.47;0.80;;;;;;;6.93;100.00;90183.19;2081694;28;20786;-86
2024/03/27 01:28:39;;;;;;;1.73;0.90;;;;;;;7.22;100.00;90177.00;2081680;28;20025;-84
2024/03/27 01:29:40;;;;;;;1.40;0.98;;;;;;;7.05;100.00;90179.47;2081350;28;20029;-84
2024/03/27 01:30:41;;;;;;;1.33;0.88;;;;;;;6.99;100.00;90175.28;2077824;28;20029;-83
2024/03/27 01:31:42;;;;;;;2.25;0.82;;;;;;;6.91;100.00;90187.50;2081412;28;20029;-84
2024/03/27 01:32:45;;;;;;;0.88;0.82;;;;;;;7.06;100.00;90180.19;2071088;28;20521;-83
2024/03/27 01:33:48;;;;;;;1.55;1.20;;;;;;;6.75;100.00;90180.78;2067011;28;20087;-86
2024/03/27 01:34:49;;;;;;;1.20;0.68;;;;;;;6.73;100.00;90178.59;2081699;28;20033;-83
2024/03/27 01:35:51;;;;;;;0.90;0.82;;;;;;;6.86;100.00;90172.25;2078712;28;20788;-87
2024/03/27 01:36:52;;;;;;;1.08;0.80;;;;;;;6.74;100.00;90171.34;2090172;28;20028;-83
2024/03/27 01:37:53;;;;;;;0.85;0.70;;;;;;;6.71;100.00;90178.31;2084187;28;20025;-85
2024/03/27 01:38:54;;;;;;;1.23;0.75;;;;;;;6.71;100.00;90169.63;2074702;28;20048;-83
2024/03/27 01:39:55;;;;;;;1.20;0.80;;;;;;;6.61;100.00;90181.56;2097831;28;20040;-85
2024/03/27 01:40:56;;;;;;;1.00;0.80;;;;;;;6.65;100.00;90174.88;2072270;28;20085;-84
2024/03/27 01:41:57;;;;;;;1.48;0.60;;;;;;;6.60;100.00;90174.81;2081185;28;20075;-87
2024/03/27 01:43:01;;;;;;;1.13;0.55;;;;;;;6.62;100.00;90183.75;2080972;28;20128;-83
2024/03/27 01:44:02;;;;;;;1.25;0.70;;;;;;;6.49;100.00;90185.97;2081333;28;20513;-88
2024/03/27 01:45:04;;;;;;;1.35;0.50;;;;;;;6.26;100.00;90192.88;2075606;28;20444;-83
2024/03/27 01:46:09;;;;;;;1.92;1.00;;;;;;;6.33;100.00;90189.88;2087165;28;20024;-86
2024/03/27 01:47:11;;;;;;;2.67;0.93;;;;;;;6.34;100.00;90196.63;2094112;28;20024;-85
2024/03/27 01:48:12;;;;;;;1.45;0.77;;;;;;;6.19;100.00;90206.50;2087965;28;20013;-83
2024/03/27 01:49:18;;;;;;;0.70;0.70;;;;;;;6.21;100.00;90207.53;2089371;28;20091;-88
2024/03/27 01:50:24;;;;;;;1.20;0.80;;;;;;;6.32;100.00;90206.94;2077768;28;20382;-83
2024/03/27 01:51:25;;;;;;;4.00;1.10;;;;;;;6.28;100.00;90209.81;2065322;28;20045;-85
2024/03/27 01:52:27;;;;;;;0.85;0.73;;;;;;;6.45;100.00;90204.75;2081066;28;20132;-86
2024/03/27 01:53:29;;;;;;;1.10;0.90;;;;;;;6.48;100.00;90211.78;2067063;28;20024;-83
2024/03/27 01:54:31;;;;;;;1.77;0.85;;;;;;;6.40;100.00;90205.38;2066897;28;20032;-83
2024/03/27 01:55:32;;;;;;;1.60;1.00;;;;;;;6.45;100.00;90210.06;2089558;28;20421;-83
2024/03/27 01:56:33;;;;;;;1.35;1.00;;;;;;;6.46;100.00;90206.22;2067994;28;20029;-83
2024/03/27 01:57:38;;;;;;;2.10;1.13;;;;;;;6.33;100.00;90203.13;2073152;28;20056;-85
2024/03/27 01:58:40;;;;;;;1.70;1.13;;;;;;;6.17;100.00;90208.91;2081437;28;20021;-84
2024/03/27 01:59:41;;;;;;;1.80;1.10;;;;;;;6.22;100.00;90198.38;2078061;28;20071;-86
2024/03/27 02:00:44;;;;;;;2.50;0.90;;;;;;;6.24;100.00;90196.00;2081734;28;20491;-85
2024/03/27 02:01:48;;;;;;;3.63;1.00;;;;;;;6.26;100.00;90192.88;2073232;28;20075;-85
2024/03/27 02:02:49;;;;;;;2.70;1.20;;;;;;;6.21;100.00;90186.31;2084508;28;20032;-85
2024/03/27 02:03:52;;;;;;;2.08;1.10;;;;;;;6.24;100.00;90182.03;2086122;28;20504;-84
2024/03/27 02:04:53;;;;;;;3.15;1.17;;;;;;;6.19;100.00;90180.75;2084419;28;20025;-86
2024/03/27 02:05:54;;;;;;;1.27;1.05;;;;;;;6.11;100.00;90176.28;2088598;28;20099;-84
2024/03/27 02:06:56;;;;;;;0.85;0.70;;;;;;;6.09;100.00;90165.38;2077205;28;20060;-87
2024/03/27 02:07:57;;;;;;;3.08;1.20;;;;;;;6.09;100.00;90160.09;2084512;28;20024;-84
2024/03/27 02:08:58;;;;;;;1.52;0.90;;;;;;;6.19;100.00;90158.78;2097221;28;20036;-84
2024/03/27 02:10:01;;;;;;;2.42;0.80;;;;;;;6.34;100.00;90158.75;2081220;28;20029;-83
2024/03/27 02:11:02;;;;;;;1.40;0.90;;;;;;;6.07;100.00;90157.16;2081345;28;20032;-85
2024/03/27 02:12:07;;;;;;;1.50;1.10;;;;;;;6.14;100.00;90157.50;2084481;28;20028;-86
2024/03/27 02:13:08;;;;;;;1.48;0.90;;;;;;;5.95;100.00;90162.28;2085577;28;20567;-84
2024/03/27 02:14:09;;;;;;;2.25;1.13;;;;;;;6.10;100.00;90151.66;2089135;28;20037;-84
2024/03/27 02:15:10;;;;;;;2.65;0.90;;;;;;;5.96;100.00;90153.16;2084733;28;20154;-84
2024/03/27 02:16:12;;;;;;;1.05;0.95;;;;;;;5.88;100.00;90156.59;2096452;28;20485;-81
2024/03/27 02:17:13;;;;;;;2.42;1.20;;;;;;;5.94;100.00;90157.47;2088164;28;20035;-84
2024/03/27 02:18:14;;;;;;;1.50;0.90;;;;;;;5.96;100.00;90158.44;2072952;28;21007;-85
2024/03/27 02:19:15;;;;;;;2.97;1.20;;;;;;;5.99;100.00;90154.88;2087406;28;20029;-86
2024/03/27 02:20:17;;;;;;;2.55;1.10;;;;;;;5.94;100.00;90152.16;2081786;28;20025;-83
2024/03/27 02:21:18;;;;;;;3.80;1.15;;;;;;;6.06;100.00;90156.44;2088939;28;20028;-82
2024/03/27 02:22:19;;;;;;;2.47;0.95;;;;;;;6.35;100.00;90149.59;2098002;28;20029;-84
2024/03/27 02:23:25;;;;;;;1.58;0.88;;;;;;;6.12;100.00;90145.91;2084795;28;20017;-84
2024/03/27 02:24:44;;;;;;;2.78;0.88;;;;;;;6.24;100.00;90142.25;2087519;28;20155;-87
2024/03/27 02:25:55;;;;;;;2.05;0.90;;;;;;;6.22;100.00;90134.72;2091576;28;20090;-86
2024/03/27 02:26:57;;;;;;;1.88;0.77;;;;;;;6.18;100.00;90128.16;2078748;28;20033;-87
2024/03/27 02:27:59;;;;;;;1.58;0.93;;;;;;;6.16;100.00;90125.25;2080405;28;20041;-83
2024/03/27 02:29:00;;;;;;;1.23;0.95;;;;;;;5.91;100.00;90135.22;2089273;28;20130;-83
2024/03/27 02:30:01;;;;;;;1.13;0.85;;;;;;;6.01;100.00;90130.56;2086228;28;20362;-86
2024/03/27 02:31:02;;;;;;;1.63;1.00;;;;;;;5.97;100.00;90130.75;2089279;28;20032;-87
2024/03/27 02:32:03;;;;;;;1.13;0.98;;;;;;;5.84;100.00;90126.88;2073950;28;20083;-87
2024/03/27 02:33:04;;;;;;;1.85;1.10;;;;;;;5.96;100.00;90129.28;2077098;28;20474;-82
2024/03/27 02:34:05;;;;;;;1.25;0.90;;;;;;;6.02;100.00;90124.81;2080763;28;20053;-84
2024/03/27 02:35:12;;;;;;;1.73;1.00;;;;;;;6.04;100.00;90129.66;2079941;28;20025;-84
2024/03/27 02:36:13;;;;;;;1.83;1.02;;;;;;;5.78;100.00;90126.81;2086748;28;20460;-84
2024/03/27 02:37:14;;;;;;;1.17;1.00;;;;;;;5.59;100.00;90122.91;2081017;28;20401;-82
2024/03/27 02:38:15;;;;;;;1.73;0.80;;;;;;;5.60;100.00;90127.75;2072479;28;20946;-85
2024/03/27 02:39:16;;;;;;;2.10;1.02;;;;;;;5.66;100.00;90122.53;2080782;28;20033;-87
2024/03/27 02:40:17;;;;;;;1.33;0.90;;;;;;;5.64;100.00;90115.03;2074772;28;21192;-86
2024/03/27 02:41:18;;;;;;;1.58;0.88;;;;;;;5.62;100.00;90114.03;2084220;28;20037;-85
2024/03/27 02:42:19;;;;;;;2.33;0.60;;;;;;;5.58;100.00;90113.50;2089016;28;20124;-84
2024/03/27 02:43:20;;;;;;;0.80;0.77;;;;;;;5.67;100.00;90106.19;2075897;28;20029;-86
2024/03/27 02:44:21;;;;;;;1.05;0.77;;;;;;;5.63;100.00;90108.28;2081023;28;20022;-83
2024/03/27 02:45:22;;;;;;;0.77;0.73;;;;;;;5.53;100.00;90106.91;2084095;28;20112;-85
2024/03/27 02:46:23;;;;;;;1.98;0.70;;;;;;;5.32;100.00;90114.03;2081819;28;20111;-85
2024/03/27 02:47:24;;;;;;;2.45;1.10;;;;;;;5.25;100.00;90104.53;2089060;28;20017;-83
2024/03/27 02:48:25;;;;;;;1.90;0.90;;;;;;;5.19;100.00;90108.28;2083436;28;20134;-86
2024/03/27 02:49:26;;;;;;;1.58;0.82;;;;;;;5.10;100.00;90103.06;2088560;28;20358;-86
2024/03/27 02:50:27;;;;;;;1.92;1.00;;;;;;;5.17;100.00;90097.41;2075855;28;20026;-85
2024/03/27 02:51:28;;;;;;;1.60;1.02;;;;;;;5.26;100.00;90095.38;2075838;28;20021;-85
2024/03/27 02:52:29;;;;;;;1.25;0.90;;;;;;;5.09;100.00;90085.69;2080835;28;20070;-83
2024/03/27 02:53:30;;;;;;;2.92;0.88;;;;;;;5.13;100.00;90078.31;2083857;28;20087;-85
2024/03/27 02:54:33;;;;;;;1.70;0.88;;;;;;;5.08;100.00;90078.94;2080826;28;20098;-86
2024/03/27 02:55:34;;;;;;;1.13;0.70;;;;;;;5.22;100.00;90063.09;2089444;28;20025;-85
2024/03/27 02:56:35;;;;;;;2.90;0.90;;;;;;;5.25;100.00;90054.22;2083758;28;20190;-84
2024/03/27 02:57:36;;;;;;;2.10;0.90;;;;;;;5.41;100.00;90049.66;2082373;28;20029;-84
2024/03/27 02:58:37;;;;;;;3.30;0.80;;;;;;;5.47;100.00;90040.59;2082368;28;20028;-86
2024/03/27 02:59:38;;;;;;;1.88;0.80;;;;;;;5.44;100.00;90032.84;2092340;28;20112;-84
2024/03/27 03:00:39;;;;;;;0.60;0.60;;;;;;;5.53;100.00;90035.38;2089292;28;20063;-81
2024/03/27 03:01:40;;;;;;;1.00;0.80;;;;;;;5.56;100.00;90040.50;2082975;28;20024;-86
2024/03/27 03:02:41;;;;;;;1.35;0.85;;;;;;;5.52;100.00;90045.25;2089108;28;20029;-88
2024/03/27 03:03:42;;;;;;;1.25;0.60;;;;;;;5.48;100.00;90046.63;2085728;28;20102;-84
2024/03/27 03:04:43;;;;;;;1.55;0.70;;;;;;;5.44;100.00;90048.72;2084302;28;20079;-84
2024/03/27 03:05:44;;;;;;;1.15;0.80;;;;;;;5.44;100.00;90046.81;2080778;28;20048;-83
2024/03/27 03:06:46;;;;;;;2.65;0.80;;;;;;;5.48;100.00;90046.63;2079667;28;20204;-86
2024/03/27 03:07:46;;;;;;;1.17;0.80;;;;;;;5.55;100.00;90039.03;2089251;28;20021;-84
2024/03/27 03:08:47;;;;;;;1.00;0.60;;;;;;;4.96;100.00;90040.97;2091809;28;20412;-84
2024/03/27 03:09:48;;;;;;;0.90;0.70;;;;;;;4.77;100.00;90040.41;2083482;28;20043;-84
2024/03/27 03:10:53;;;;;;;1.13;0.80;;;;;;;4.82;100.00;90031.84;2079970;28;20033;-84
2024/03/27 03:11:54;;;;;;;0.77;0.50;;;;;;;4.85;100.00;90035.50;2084329;28;20083;-84
2024/03/27 03:12:55;;;;;;;2.40;0.80;;;;;;;4.95;100.00;90034.94;2083590;28;20096;-85
2024/03/27 03:13:56;;;;;;;0.50;0.50;;;;;;;5.19;100.00;90032.22;2084397;28;20028;-84
2024/03/27 03:14:57;;;;;;;1.10;0.70;;;;;;;5.35;100.00;90033.66;2083817;28;20056;-84
2024/03/27 03:15:58;;;;;;;1.75;0.68;;;;;;;5.30;100.00;90042.25;2096302;28;20028;-85
2024/03/27 03:16:59;;;;;;;1.98;0.70;;;;;;;5.30;100.00;90039.59;2087702;28;20024;-84
2024/03/27 03:18:00;;;;;;;1.73;0.88;;;;;;;5.34;100.00;90040.16;2083598;28;20079;-87
2024/03/27 03:19:01;;;;;;;1.65;0.77;;;;;;;5.40;100.00;90046.28;2088927;28;20062;-86
2024/03/27 03:20:04;;;;;;;4.28;0.80;;;;;;;5.42;100.00;90041.25;2077312;28;20044;-85
2024/03/27 03:21:05;;;;;;;1.50;1.10;;;;;;;5.19;100.00;90042.09;2097590;28;20100;-87
2024/03/27 03:22:08;;;;;;;1.95;0.70;;;;;;;5.02;100.00;90052.41;2087886;28;20411;-84
2024/03/27 03:23:09;;;;;;;0.60;0.60;;;;;;;5.05;100.00;90049.56;2080288;28;20044;-85
2024/03/27 03:24:10;;;;;;;1.55;0.90;;;;;;;4.98;100.00;90041.97;2080625;28;20206;-87
2024/03/27 03:25:11;;;;;;;1.17;0.77;;;;;;;5.30;100.00;90037.69;2069531;28;20029;-85
2024/03/27 03:26:12;;;;;;;1.45;0.70;;;;;;;5.18;100.00;90040.59;2097098;28;20032;-83
2024/03/27 03:27:14;;;;;;;0.75;0.60;;;;;;;5.18;100.00;90040.59;2077605;28;20374;-86
2024/03/27 03:28:15;;;;;;;1.67;0.70;;;;;;;5.14;100.00;90042.72;2081227;28;20045;-84
2024/03/27 03:29:16;;;;;;;0.95;0.60;;;;;;;5.12;100.00;90047.75;2089020;28;20028;-84
2024/03/27 03:30:17;;;;;;;0.60;0.60;;;;;;;5.09;100.00;90053.94;2071924;28;20022;-85
2024/03/27 03:31:19;;;;;;;0.50;0.50;;;;;;;5.20;100.00;90056.78;2090473;28;20059;-85
2024/03/27 03:32:20;;;;;;;0.40;0.40;;;;;;;5.06;100.00;90058.25;2070267;28;20025;-85
2024/03/27 03:33:21;;;;;;;0.60;0.52;;;;;;;4.97;100.00;90064.34;2079430;28;20017;-86
2024/03/27 03:34:22;;;;;;;1.25;0.50;;;;;;;4.85;100.00;90067.97;2090446;28;20028;-88
2024/03/27 03:35:25;;;;;;;3.33;0.90;;;;;;;4.82;100.00;90068.16;2074460;28;20033;-86
2024/03/27 03:36:26;;;;;;;0.47;0.43;;;;;;;4.94;100.00;90069.81;2082432;28;20062;-83
2024/03/27 03:37:27;;;;;;;0.90;0.60;;;;;;;4.69;100.00;90071.78;2090743;28;20024;-85
2024/03/27 03:38:28;;;;;;;0.50;0.50;;;;;;;4.90;100.00;90075.28;2079785;28;20020;-86
2024/03/27 03:39:29;;;;;;;1.00;0.57;;;;;;;5.02;100.00;90084.88;2090631;28;20377;-84
2024/03/27 03:40:50;;;;;;;1.90;0.68;;;;;;;5.13;100.00;90073.75;2080575;28;20075;-85
2024/03/27 03:41:51;;;;;;;0.75;0.52;;;;;;;5.22;100.00;90072.94;2083428;28;20399;-86
2024/03/27 03:42:53;;;;;;;0.77;0.40;;;;;;;5.27;100.00;90069.66;2099214;28;20048;-86
2024/03/27 03:43:54;;;;;;;0.40;0.40;;;;;;;5.14;100.00;90066.56;2092498;28;20044;-84
2024/03/27 03:44:55;;;;;;;0.73;0.60;;;;;;;5.01;100.00;90066.81;2090522;28;20444;-89
2024/03/27 03:45:56;;;;;;;0.70;0.70;;;;;;;4.96;100.00;90065.53;2077198;28;20041;-82
2024/03/27 03:46:57;;;;;;;1.25;0.65;;;;;;;4.94;100.00;90054.66;2077291;28;20086;-83
2024/03/27 03:47:58;;;;;;;1.45;0.60;;;;;;;5.04;100.00;90052.66;2073898;28;20022;-83
2024/03/27 03:48:59;;;;;;;0.63;0.50;;;;;;;5.08;100.00;90049.84;2074219;28;20068;-85
2024/03/27 03:50:00;;;;;;;0.50;0.50;;;;;;;5.16;100.00;90037.69;2074907;28;20029;-85
2024/03/27 03:51:01;;;;;;;1.90;0.63;;;;;;;5.22;100.00;90036.63;2082067;28;20470;-83
2024/03/27 03:52:03;;;;;;;1.95;0.70;;;;;;;5.21;100.00;90039.69;2073142;28;20029;-84
2024/03/27 03:53:04;;;;;;;1.05;0.65;;;;;;;5.20;100.00;90030.31;2082567;28;20343;-83
2024/03/27 03:54:07;;;;;;;0.60;0.57;;;;;;;5.29;100.00;90024.91;2080881;28;20036;-86
2024/03/27 03:55:08;;;;;;;1.92;0.63;;;;;;;5.25;100.00;90019.78;2086051;28;20031;-85
2024/03/27 03:56:10;;;;;;;1.20;0.70;;;;;;;5.12;100.00;90018.63;2098595;28;20028;-87
2024/03/27 03:57:11;;;;;;;0.60;0.60;;;;;;;5.10;100.00;90013.06;2083146;28;20032;-85
2024/03/27 03:58:13;;;;;;;0.73;0.50;;;;;;;5.13;100.00;90017.44;2090471;28;20107;-86
2024/03/27 03:59:14;;;;;;;1.38;0.45;;;;;;;5.02;100.00;90023.28;2082135;28;20029;-82
2024/03/27 04:00:20;;;;;;;0.75;0.50;;;;;;;4.99;100.00;90030.19;2083256;28;20248;-86
2024/03/27 04:01:21;;;;;;;1.08;0.60;;;;;;;4.97;100.00;90032.59;2090857;28;20051;-86
2024/03/27 04:02:22;;;;;;;0.95;0.68;;;;;;;4.98;100.00;90028.03;2086701;28;20024;-82
2024/03/27 04:03:23;;;;;;;0.50;0.50;;;;;;;5.00;100.00;90023.75;2096503;28;20519;-87
2024/03/27 04:04:24;;;;;;;0.60;0.60;;;;;;;5.22;100.00;90025.28;2066546;28;20029;-85
2024/03/27 04:05:25;;;;;;;1.08;0.68;;;;;;;5.26;100.00;90025.81;2083538;28;20467;-87
2024/03/27 04:06:27;;;;;;;0.65;0.50;;;;;;;5.20;100.00;90025.75;2090046;28;20385;-84
2024/03/27 04:07:28;;;;;;;1.77;0.50;;;;;;;5.23;100.00;90027.47;2076073;28;20103;-86
2024/03/27 04:08:29;;;;;;;0.60;0.50;;;;;;;5.29;100.00;90023.00;2092586;28;20370;-83
2024/03/27 04:09:31;;;;;;;0.50;0.40;;;;;;;5.45;100.00;90027.09;2089088;28;20032;-82
2024/03/27 04:10:41;;;;;;;1.92;0.70;;;;;;;5.45;100.00;90035.03;2077941;28;20434;-85
2024/03/27 04:11:42;;;;;;;0.73;0.50;;;;;;;5.40;100.00;90040.22;2102460;28;20080;-85
2024/03/27 04:12:43;;;;;;;1.23;0.57;;;;;;;5.25;100.00;90045.53;2081094;28;20035;-84
2024/03/27 04:13:44;;;;;;;1.45;0.70;;;;;;;5.18;100.00;90051.97;2090181;28;20171;-85
2024/03/27 04:14:45;;;;;;;0.52;0.52;;;;;;;4.95;100.00;90047.44;2085652;28;20090;-87
2024/03/27 04:15:46;;;;;;;0.98;0.60;;;;;;;5.13;100.00;90044.63;2083740;28;20494;-82
2024/03/27 04:16:47;;;;;;;0.85;0.50;;;;;;;5.18;100.00;90041.38;2094014;28;20059;-84
2024/03/27 04:17:48;;;;;;;1.27;0.70;;;;;;;5.12;100.00;90047.75;2083672;28;20037;-83
2024/03/27 04:18:50;;;;;;;3.33;0.88;;;;;;;5.31;100.00;90046.34;2093704;28;20056;-83
2024/03/27 04:19:51;;;;;;;2.10;0.80;;;;;;;5.48;100.00;90052.66;2079266;28;20112;-86
2024/03/27 04:20:52;;;;;;;1.27;0.70;;;;;;;5.44;100.00;90051.38;2071309;28;20029;-85
2024/03/27 04:21:53;;;;;;;2.60;1.40;;;;;;;5.40;100.00;90043.63;2098151;28;20020;-85
2024/03/27 04:22:54;;;;;;;1.40;0.80;;;;;;;5.41;100.00;90037.16;2074926;28;20595;-86
2024/03/27 04:23:55;;;;;;;2.42;0.95;;;;;;;5.33;100.00;90033.41;2082037;28;20057;-84
2024/03/27 04:24:56;;;;;;;1.35;0.88;;;;;;;5.39;100.00;90036.84;2074528;28;20076;-84
2024/03/27 04:25:58;;;;;;;1.88;0.82;;;;;;;5.49;100.00;90029.56;2081982;28;20032;-83
2024/03/27 04:26:59;;;;;;;1.55;0.88;;;;;;;5.54;100.00;90026.25;2074787;28;20666;-84
2024/03/27 04:28:00;;;;;;;1.67;0.85;;;;;;;5.77;100.00;90019.34;2081270;28;20045;-83
2024/03/27 04:29:02;;;;;;;1.30;0.80;;;;;;;5.62;100.00;90024.69;2090357;28;20552;-85
2024/03/27 04:30:04;;;;;;;1.35;0.80;;;;;;;5.84;100.00;90024.28;2076470;28;20147;-82
2024/03/27 04:31:05;;;;;;;1.55;0.85;;;;;;;5.89;100.00;90017.59;2075699;28;20059;-86
2024/03/27 04:32:08;;;;;;;2.05;1.10;;;;;;;5.64;100.00;90019.66;2072802;28;20072;-84
2024/03/27 04:33:10;;;;;;;1.67;1.10;;;;;;;5.79;100.00;90011.66;2090548;28;20025;-82
2024/03/27 04:34:11;;;;;;;1.35;0.75;;;;;;;5.82;100.00;90024.00;2089885;28;20024;-87
2024/03/27 04:35:12;;;;;;;3.85;1.10;;;;;;;5.71;100.00;90016.63;2082815;28;20481;-85
2024/03/27 04:36:13;;;;;;;1.58;0.93;;;;;;;5.66;100.00;90025.22;2093795;28;20046;-85
2024/03/27 04:37:14;;;;;;;1.88;1.25;;;;;;;5.52;100.00;90020.69;2075644;28;20111;-83
2024/03/27 04:38:16;;;;;;;2.33;1.00;;;;;;;5.36;100.00;90019.25;2076057;28;20378;-85
2024/03/27 04:39:19;;;;;;;1.52;1.05;;;;;;;5.54;100.00;90021.69;2097900;28;20043;-83
2024/03/27 04:40:20;;;;;;;1.73;0.88;;;;;;;5.58;100.00;90020.78;2070661;28;21001;-83
2024/03/27 04:41:21;;;;;;;2.70;1.00;;;;;;;5.60;100.00;90016.47;2089758;28;20466;-83
2024/03/27 04:42:22;;;;;;;2.17;0.85;;;;;;;5.56;100.00;90008.69;2080547;28;20067;-89
2024/03/27 04:43:23;;;;;;;2.05;1.00;;;;;;;5.62;100.00;90010.69;2080265;28;20017;-82
2024/03/27 04:44:24;;;;;;;1.75;0.80;;;;;;;5.72;100.00;90006.75;2073932;28;20049;-83
2024/03/27 04:45:25;;;;;;;3.30;1.10;;;;;;;5.74;100.00;89997.16;2074004;28;20157;-85
2024/03/27 04:46:27;;;;;;;2.60;0.85;;;;;;;5.92;100.00;90004.16;2075573;28;20033;-82
2024/03/27 04:47:28;;;;;;;1.73;1.00;;;;;;;5.98;100.00;90002.31;2007562;28;20748;-83
2024/03/27 04:48:29;;;;;;;2.60;1.15;;;;;;;5.88;100.00;90003.59;2003039;28;21435;-81
2024/03/27 04:49:31;;;;;;;1.80;1.10;;;;;;;5.93;100.00;90015.50;2009587;28;20080;-81
2024/03/27 04:50:32;;;;;;;2.92;0.95;;;;;;;6.08;100.00;90015.44;2015442;28;20186;-83